ADDS TAF Board (Experimental) INFO

IDs: Format: Expanded Condensed

Updated at: 0535 UTC 28 Nov 2014

KATL - Atlanta/Hartsfield-J, GA, US

Issued at 0526 UTC 28 Nov 2014
Time0452Z28/06Z28/07Z28/08Z28/09Z28/10Z28/11Z28/12Z28/13Z28/14Z28/15Z28/16Z28/17Z28/18Z
TypeOBSPRVLPRVLPRVLPRVLPRVLPRVLPRVLPRVLPRVLPRVLPRVLPRVLPRVL
VIS10>6>6>6>6>6>6>6>6>6>6>6>6>6
CIG----------------------------
CoverCLRSKCSKCSKCSKCSKCSKCSKCSKCSKCSKCSKCSKCSKC
FltCat--VFRVFRVFRVFRVFRVFRVFRVFRVFRVFRVFRVFRVFR
WX----------------------------
WDir340340340340340340340340340340350350350350
WSpd68888888886666
WGst----------------------------
R08/26
XWnd68888888886666
HWnd-2-3-3-3-3-3-3-3-3-3-1-1-1-1
R09/27
XWnd68888888886666
HWnd-2-3-3-3-3-3-3-3-3-3-1-1-1-1
R10/28
XWnd68888888886666
HWnd-2-3-3-3-3-3-3-3-3-3-1-1-1-1
Raw TAF
KATL 280526Z 2806/2912 34008KT P6SM SKC
  FM281500 35006KT P6SM SKC
  FM282100 26005KT P6SM SKC
  FM290000 20003KT P6SM SKC


Raw METAR
KATL 280452Z 34006KT 10SM CLR 02/M05 A3038 RMK AO2 SLP292 T00171050 400940017

TAF Board Legend

Hazard VFR MVFR IFR LIFR
Visibility (sm) >5 3≤X≤5 1≤X<3 <1
Ceiling (100 ft) >30 10≤X≤30 5≤X<10 <5
Wind Speed (kt) <10 10≤X<20 20≤X<30 ≥30
Wind Gust (kt) <15 15≤X<25 25≤X<35 ≥35
Weather No Wx Reported VCTS,-TS,-FZRA TS,FZRA +TS,+FZRA


Page loaded:  05:35 UTC  |   09:35 PM Pacific  |   10:35 PM Mountain  |   11:35 PM Central  |   12:35 AM Eastern

 

ADVISORIES

FORECASTS

FORECASTS

OBSERVATIONS

USER TOOLS

ABOUT US